Time;durP1;ratioP1;P1;durP2;ratioP2;P2;SDS_P1;SDS_P2;PMS_P1;PMS_P2;Temp;Humidity;BMP_temperature;BMP_pressure;BME280_temperature;BME280_humidity;BME280_pressure;Samples;Min_cycle;Max_cycle;Signal;HPM_P1;HPM_P2
2023/03/22 00:01:40;;;;;;;8.48;4.70;;;;;;;9.15;100.00;94302.63;5027585;28;20204;-74
2023/03/22 00:04:07;;;;;;;7.75;4.78;;;;;;;9.12;100.00;94302.47;5027452;28;20242;-74
2023/03/22 00:06:33;;;;;;;9.32;4.25;;;;;;;9.04;100.00;94301.38;5027224;28;20200;-74
2023/03/22 00:09:00;;;;;;;7.95;4.47;;;;;;;8.97;100.00;94298.41;5027349;28;20200;-74
2023/03/22 00:11:27;;;;;;;14.25;5.70;;;;;;;9.02;100.00;94298.19;5026640;28;20600;-75
2023/03/22 00:13:57;;;;;;;12.55;5.38;;;;;;;9.04;100.00;94290.56;5026025;28;20254;-74
2023/03/22 00:16:24;;;;;;;6.20;4.40;;;;;;;9.07;100.00;94294.53;5027056;28;20215;-73
2023/03/22 00:18:51;;;;;;;6.00;3.67;;;;;;;9.07;100.00;94292.63;5026937;28;20656;-73
2023/03/22 00:21:18;;;;;;;5.75;4.03;;;;;;;9.17;100.00;94288.75;5026999;28;20208;-74
2023/03/22 00:23:45;;;;;;;5.43;3.85;;;;;;;9.13;100.00;94283.22;5027210;28;20263;-74
2023/03/22 00:26:13;;;;;;;9.98;5.20;;;;;;;9.15;100.00;94291.81;5027518;28;20204;-73
2023/03/22 00:28:40;;;;;;;6.95;4.28;;;;;;;9.06;100.00;94288.34;5027070;28;20836;-73
2023/03/22 00:31:08;;;;;;;7.85;4.80;;;;;;;9.06;100.00;94280.22;5027451;28;20232;-73
2023/03/22 00:33:36;;;;;;;8.02;4.88;;;;;;;9.04;100.00;94279.75;5026695;28;20208;-73
2023/03/22 00:36:05;;;;;;;7.70;4.80;;;;;;;9.08;100.00;94286.09;5027461;28;20864;-73
2023/03/22 00:38:35;;;;;;;7.10;5.05;;;;;;;9.09;100.00;94278.78;5027369;28;20266;-73
2023/03/22 00:41:07;;;;;;;9.57;4.93;;;;;;;9.04;100.00;94282.47;5027023;28;20295;-74
2023/03/22 00:43:34;;;;;;;8.57;5.25;;;;;;;8.94;100.00;94277.44;5026843;28;20204;-74
2023/03/22 00:46:00;;;;;;;8.90;4.95;;;;;;;8.99;100.00;94274.56;5026664;28;20547;-74
2023/03/22 00:48:29;;;;;;;8.13;4.38;;;;;;;9.10;100.00;94278.47;5027121;28;20204;-74
2023/03/22 00:50:56;;;;;;;9.63;5.13;;;;;;;9.10;100.00;94283.09;5026903;28;20314;-74
2023/03/22 00:53:22;;;;;;;10.32;4.50;;;;;;;8.99;100.00;94279.97;5027063;28;20207;-74
2023/03/22 00:55:49;;;;;;;8.20;5.28;;;;;;;8.94;100.00;94279.34;5026575;28;20650;-74
2023/03/22 00:58:16;;;;;;;9.27;5.30;;;;;;;8.88;100.00;94276.81;5030281;28;20726;-74
2023/03/22 01:00:43;;;;;;;7.85;5.00;;;;;;;8.96;100.00;94277.91;5029946;28;20204;-73
2023/03/22 01:03:13;;;;;;;8.85;4.55;;;;;;;8.90;100.00;94284.59;5029949;28;20294;-73
2023/03/22 01:05:41;;;;;;;8.07;4.70;;;;;;;8.81;100.00;94270.34;5029644;28;20208;-73
2023/03/22 01:08:08;;;;;;;10.63;4.47;;;;;;;8.86;100.00;94273.69;5029649;28;20258;-75
2023/03/22 01:10:35;;;;;;;6.53;4.32;;;;;;;8.87;100.00;94266.38;5029581;28;20300;-74
2023/03/22 01:13:02;;;;;;;5.68;3.50;;;;;;;8.75;100.00;94264.34;5030053;28;20645;-74
2023/03/22 01:15:29;;;;;;;10.05;3.70;;;;;;;8.87;100.00;94263.66;5028790;28;20212;-74
2023/03/22 01:17:58;;;;;;;7.32;3.90;;;;;;;8.80;100.00;94263.38;5030167;28;20368;-75
2023/03/22 01:20:25;;;;;;;6.03;3.90;;;;;;;8.83;100.00;94262.72;5029990;28;20782;-73
2023/03/22 01:22:54;;;;;;;5.97;4.20;;;;;;;8.73;100.00;94260.41;5029942;28;20208;-74
2023/03/22 01:25:21;;;;;;;5.90;4.03;;;;;;;8.70;100.00;94264.53;5029315;28;20641;-74
2023/03/22 01:27:47;;;;;;;9.48;3.78;;;;;;;8.77;100.00;94258.59;5030178;28;20625;-74
2023/03/22 01:30:14;;;;;;;5.38;3.80;;;;;;;8.80;100.00;94257.97;5029895;28;20617;-73
2023/03/22 01:32:41;;;;;;;5.53;3.55;;;;;;;8.78;100.00;94260.19;5029358;28;20634;-74
2023/03/22 01:35:09;;;;;;;6.60;4.32;;;;;;;8.81;100.00;94254.16;5029233;28;20200;-73
2023/03/22 01:37:36;;;;;;;6.53;4.45;;;;;;;8.75;100.00;94260.84;5029721;28;20201;-73
2023/03/22 01:40:05;;;;;;;5.22;3.72;;;;;;;8.68;100.00;94255.16;5029675;28;20200;-75
2023/03/22 01:42:32;;;;;;;8.15;4.18;;;;;;;8.73;100.00;94257.69;5029734;28;20211;-75
2023/03/22 01:45:36;;;;;;;8.52;4.10;;;;;;;8.85;100.00;94255.09;5029545;28;20729;-73
2023/03/22 01:48:08;;;;;;;7.05;4.10;;;;;;;8.73;100.00;94257.69;5029122;28;20208;-74
2023/03/22 01:50:37;;;;;;;6.97;3.92;;;;;;;8.63;100.00;94247.25;5029243;28;20197;-73
2023/03/22 01:53:08;;;;;;;7.07;4.45;;;;;;;8.62;100.00;94248.34;5029685;28;20231;-74
2023/03/22 01:55:37;;;;;;;6.72;5.13;;;;;;;8.66;100.00;94249.28;5029631;28;20262;-74
2023/03/22 01:58:05;;;;;;;7.22;4.60;;;;;;;8.58;100.00;94252.84;5016825;28;20219;-74
2023/03/22 02:00:33;;;;;;;8.20;4.57;;;;;;;8.74;100.00;94248.47;5029327;28;20230;-75
2023/03/22 02:03:00;;;;;;;9.95;4.93;;;;;;;8.63;100.00;94249.94;5029315;28;20568;-74
2023/03/22 02:05:28;;;;;;;6.78;4.35;;;;;;;8.47;100.00;94245.06;5028750;28;20204;-73
2023/03/22 02:07:55;;;;;;;6.47;4.50;;;;;;;8.46;100.00;94248.91;5028242;28;20197;-74
2023/03/22 02:10:24;;;;;;;6.70;4.60;;;;;;;8.48;100.00;94245.88;5028875;28;20741;-73
2023/03/22 02:13:18;;;;;;;6.50;4.50;;;;;;;8.33;100.00;94244.50;5029440;28;20239;-73
2023/03/22 02:15:51;;;;;;;7.07;4.72;;;;;;;8.40;100.00;94239.41;5028823;28;20251;-75
2023/03/22 02:18:37;;;;;;;7.30;4.40;;;;;;;8.43;100.00;94237.97;5028286;28;20204;-74
2023/03/22 02:21:49;;;;;;;9.77;4.72;;;;;;;8.51;100.00;94245.22;5017472;28;20201;-75
2023/03/22 02:24:58;;;;;;;7.20;4.30;;;;;;;8.41;100.00;94242.88;5017614;28;20243;-74
2023/03/22 02:27:52;;;;;;;4.75;3.20;;;;;;;8.43;100.00;94243.38;5017478;28;20216;-74
2023/03/22 02:30:57;;;;;;;5.53;2.95;;;;;;;8.41;100.00;94257.19;5028353;28;20259;-72
2023/03/22 02:33:48;;;;;;;4.97;3.35;;;;;;;8.40;100.00;94249.41;4995390;28;20647;-75
2023/03/22 02:36:31;;;;;;;5.05;3.00;;;;;;;8.38;100.00;94260.50;5028706;28;20210;-75
2023/03/22 02:39:24;;;;;;;4.30;2.70;;;;;;;8.40;100.00;94269.09;5028471;28;20208;-74
2023/03/22 02:42:10;;;;;;;3.80;2.75;;;;;;;8.31;100.00;94262.91;5028295;28;20733;-75
2023/03/22 02:44:41;;;;;;;4.50;3.00;;;;;;;8.38;100.00;94255.13;5027849;28;20262;-74
2023/03/22 02:47:19;;;;;;;4.00;2.88;;;;;;;8.40;100.00;94266.38;5028380;28;20219;-73
2023/03/22 02:49:54;;;;;;;5.90;3.00;;;;;;;8.45;100.00;94268.91;5027734;28;20203;-75
2023/03/22 02:52:26;;;;;;;4.28;2.63;;;;;;;8.50;100.00;94276.81;5028039;28;20274;-75
2023/03/22 02:55:02;;;;;;;5.45;3.17;;;;;;;8.54;100.00;94272.38;5015268;28;20254;-74
2023/03/22 02:57:35;;;;;;;4.63;2.80;;;;;;;8.54;100.00;94264.28;5028204;28;20246;-75
2023/03/22 03:00:09;;;;;;;3.95;2.78;;;;;;;8.54;100.00;94269.66;5028363;28;20618;-74
2023/03/22 03:02:38;;;;;;;5.35;2.85;;;;;;;8.49;100.00;94269.84;5027925;28;20556;-75
2023/03/22 03:05:06;;;;;;;3.50;2.75;;;;;;;8.44;100.00;94267.34;5028348;28;20200;-74
2023/03/22 03:07:35;;;;;;;3.88;2.45;;;;;;;8.37;100.00;94264.31;5028055;28;20266;-74
2023/03/22 03:10:05;;;;;;;3.95;2.30;;;;;;;8.39;100.00;94269.41;5028343;28;20728;-74
2023/03/22 03:12:32;;;;;;;4.47;2.58;;;;;;;8.37;100.00;94267.03;5028067;28;20236;-73
2023/03/22 03:14:58;;;;;;;3.60;2.63;;;;;;;8.40;100.00;94277.19;5028151;28;20216;-75
2023/03/22 03:17:37;;;;;;;3.28;2.15;;;;;;;8.34;100.00;94281.16;5027752;28;20733;-74
2023/03/22 03:20:18;;;;;;;2.97;2.15;;;;;;;8.37;100.00;94277.81;5026295;28;20211;-74
2023/03/22 03:22:57;;;;;;;6.57;1.88;;;;;;;8.43;100.00;94276.53;5028162;28;20205;-74
2023/03/22 03:25:37;;;;;;;2.60;1.88;;;;;;;8.50;100.00;94282.22;5027900;28;20231;-74
2023/03/22 03:28:10;;;;;;;4.03;1.85;;;;;;;8.52;100.00;94274.59;5027634;28;20982;-75
2023/03/22 03:30:43;;;;;;;2.38;1.60;;;;;;;8.61;100.00;94276.50;5025973;28;20203;-75
2023/03/22 03:33:15;;;;;;;1.75;1.15;;;;;;;8.63;100.00;94280.44;5027819;28;20232;-74
2023/03/22 03:35:50;;;;;;;2.22;1.50;;;;;;;8.65;100.00;94280.09;5027096;28;20250;-75
2023/03/22 03:38:22;;;;;;;1.65;1.20;;;;;;;8.66;100.00;94279.78;5027620;28;20207;-75
2023/03/22 03:40:54;;;;;;;1.10;1.00;;;;;;;8.70;100.00;94282.63;5027384;28;20258;-75
2023/03/22 03:43:22;;;;;;;1.30;1.20;;;;;;;8.50;100.00;94270.63;5027215;28;20699;-75
2023/03/22 03:45:49;;;;;;;3.55;1.67;;;;;;;8.46;100.00;94288.59;5027517;28;20613;-74
2023/03/22 03:48:19;;;;;;;2.55;1.60;;;;;;;8.38;100.00;94290.19;5027140;28;20244;-74
2023/03/22 03:50:49;;;;;;;1.63;1.33;;;;;;;8.38;100.00;94284.81;5026673;28;20199;-74
2023/03/22 03:53:15;;;;;;;2.03;1.35;;;;;;;8.36;100.00;94283.53;5027231;28;20634;-76
2023/03/22 03:55:42;;;;;;;3.67;1.23;;;;;;;8.40;100.00;94290.69;5027429;28;20227;-75
2023/03/22 03:58:10;;;;;;;1.10;0.80;;;;;;;8.39;100.00;94291.00;5027627;28;20676;-75
2023/03/22 04:00:38;;;;;;;1.67;1.40;;;;;;;8.45;100.00;94290.50;5027737;28;20208;-74
2023/03/22 04:03:06;;;;;;;1.83;1.38;;;;;;;8.48;100.00;94294.44;5027722;28;20200;-74
2023/03/22 04:05:33;;;;;;;1.70;1.13;;;;;;;8.45;100.00;94295.91;5027302;28;20291;-75
2023/03/22 04:08:00;;;;;;;2.50;1.40;;;;;;;8.38;100.00;94294.81;5027692;28;20261;-75
2023/03/22 04:10:26;;;;;;;1.67;1.50;;;;;;;8.35;100.00;94296.22;5027232;28;20208;-75
2023/03/22 04:13:03;;;;;;;1.55;1.40;;;;;;;8.36;100.00;94292.41;5025907;28;20231;-76
2023/03/22 04:15:31;;;;;;;1.92;1.38;;;;;;;8.35;100.00;94298.94;5028037;28;20750;-75
2023/03/22 04:17:58;;;;;;;2.15;1.55;;;;;;;8.20;100.00;94304.81;5027426;28;20196;-74
2023/03/22 04:20:26;;;;;;;2.90;1.83;;;;;;;8.22;100.00;94297.19;5026810;28;20351;-74
2023/03/22 04:22:52;;;;;;;2.05;1.67;;;;;;;8.26;100.00;94297.34;5026238;28;20291;-75
2023/03/22 04:25:21;;;;;;;2.22;1.70;;;;;;;8.18;100.00;94307.06;5026669;28;20347;-74
2023/03/22 04:27:50;;;;;;;2.53;1.42;;;;;;;8.16;100.00;94309.28;5027262;28;20220;-73
2023/03/22 04:30:18;;;;;;;3.83;1.98;;;;;;;8.09;100.00;94298.16;5027061;28;20204;-77
2023/03/22 04:32:47;;;;;;;3.70;2.10;;;;;;;8.11;100.00;94301.34;5023271;28;20307;-74
2023/03/22 04:35:15;;;;;;;3.78;2.40;;;;;;;8.19;100.00;94303.25;5030992;28;20363;-75
2023/03/22 04:37:44;;;;;;;3.80;2.13;;;;;;;8.09;100.00;94306.25;5030642;28;20200;-74
2023/03/22 04:40:15;;;;;;;3.80;2.10;;;;;;;8.16;100.00;94309.28;5017425;28;20215;-75
2023/03/22 04:42:42;;;;;;;2.47;1.90;;;;;;;8.17;100.00;94310.84;5029861;28;20201;-75
2023/03/22 04:45:10;;;;;;;3.80;2.30;;;;;;;8.05;100.00;94316.13;5030544;28;20208;-75
2023/03/22 04:47:36;;;;;;;2.92;2.13;;;;;;;8.13;100.00;94316.09;5018253;28;20198;-75
2023/03/22 04:50:06;;;;;;;2.05;1.48;;;;;;;8.18;100.00;94323.25;5030627;28;20200;-75
2023/03/22 04:52:33;;;;;;;3.38;2.40;;;;;;;8.10;100.00;94322.13;5030075;28;20244;-75
2023/03/22 04:54:59;;;;;;;2.55;2.03;;;;;;;8.10;100.00;94321.31;5029583;28;20208;-75
2023/03/22 04:57:26;;;;;;;3.10;2.22;;;;;;;8.13;100.00;94337.69;5029943;28;20254;-76
2023/03/22 04:59:53;;;;;;;3.03;2.00;;;;;;;8.16;100.00;94336.25;5029882;28;20698;-76
2023/03/22 05:02:20;;;;;;;4.03;2.53;;;;;;;8.27;100.00;94332.09;5029830;28;20630;-76
2023/03/22 05:04:47;;;;;;;3.28;2.80;;;;;;;8.25;100.00;94334.31;5026935;28;20473;-75
2023/03/22 05:07:15;;;;;;;3.28;2.40;;;;;;;8.27;100.00;94331.31;5029758;28;20197;-74
2023/03/22 05:09:42;;;;;;;2.97;2.45;;;;;;;8.24;100.00;94331.94;5029456;28;20836;-73
2023/03/22 05:12:09;;;;;;;3.75;2.22;;;;;;;8.21;100.00;94344.16;5029714;28;20208;-75
2023/03/22 05:14:35;;;;;;;2.58;2.00;;;;;;;8.35;100.00;94352.09;5019951;28;20205;-77
2023/03/22 05:17:02;;;;;;;3.10;2.30;;;;;;;8.31;100.00;94343.84;5026074;28;20675;-75
2023/03/22 05:19:29;;;;;;;2.08;1.88;;;;;;;8.42;100.00;94333.53;5030214;28;20207;-74
2023/03/22 05:22:00;;;;;;;2.88;2.00;;;;;;;8.36;100.00;94346.41;5030481;28;20625;-74
2023/03/22 05:24:29;;;;;;;2.88;2.17;;;;;;;8.37;100.00;94342.59;5029828;28;20344;-75
2023/03/22 05:26:59;;;;;;;2.88;2.38;;;;;;;8.54;100.00;94347.97;5016250;28;20686;-74
2023/03/22 05:29:27;;;;;;;3.75;2.58;;;;;;;8.50;100.00;94347.00;5029260;28;20319;-77
2023/03/22 05:32:00;;;;;;;3.55;2.28;;;;;;;8.41;100.00;94348.16;5031377;28;20671;-74
2023/03/22 05:34:34;;;;;;;3.60;2.35;;;;;;;8.28;100.00;94357.19;5030038;28;20215;-74
2023/03/22 05:37:01;;;;;;;3.60;2.33;;;;;;;8.33;100.00;94357.84;5029606;28;20208;-75
2023/03/22 05:39:29;;;;;;;3.45;2.35;;;;;;;8.53;100.00;94349.06;5029688;28;20674;-75
2023/03/22 05:41:55;;;;;;;3.28;2.33;;;;;;;8.49;100.00;94353.50;5029320;28;20208;-73
2023/03/22 05:44:22;;;;;;;3.47;2.60;;;;;;;8.45;100.00;94351.78;5029777;28;20683;-74
2023/03/22 05:46:49;;;;;;;3.42;2.38;;;;;;;8.48;100.00;94360.03;5029816;28;20208;-75
2023/03/22 05:49:16;;;;;;;3.92;2.50;;;;;;;8.56;100.00;94361.13;5029903;28;20200;-74
2023/03/22 05:51:42;;;;;;;3.45;2.40;;;;;;;8.53;100.00;94357.16;5029648;28;20200;-74
2023/03/22 05:54:11;;;;;;;3.42;2.22;;;;;;;8.63;100.00;94366.03;5029027;28;20580;-75
2023/03/22 05:56:39;;;;;;;3.05;2.15;;;;;;;8.73;100.00;94360.31;5028921;28;20207;-74
2023/03/22 05:59:06;;;;;;;3.58;2.38;;;;;;;8.61;100.00;94373.69;5029186;28;20204;-74
2023/03/22 06:01:33;;;;;;;3.22;2.25;;;;;;;8.71;100.00;94373.34;5029050;28;20258;-74
2023/03/22 06:04:00;;;;;;;3.22;2.40;;;;;;;8.70;100.00;94377.16;5028988;28;20311;-75
2023/03/22 06:06:28;;;;;;;3.35;2.20;;;;;;;8.82;100.00;94379.97;5028925;28;20255;-75
2023/03/22 06:08:54;;;;;;;2.90;2.20;;;;;;;8.87;100.00;94377.91;5029315;28;20208;-74
2023/03/22 06:11:24;;;;;;;4.25;2.60;;;;;;;8.88;100.00;94379.47;5029160;28;20311;-73
2023/03/22 06:13:54;;;;;;;4.10;3.10;;;;;;;9.05;100.00;94385.94;5028868;28;20228;-74
2023/03/22 06:16:21;;;;;;;4.53;3.00;;;;;;;9.13;100.00;94372.41;5028876;28;20204;-73
2023/03/22 06:18:48;;;;;;;4.05;3.10;;;;;;;9.23;100.00;94376.63;5028709;28;20598;-74
2023/03/22 06:21:15;;;;;;;4.20;3.15;;;;;;;9.10;100.00;94373.03;5028847;28;20260;-76
2023/03/22 06:23:42;;;;;;;4.05;2.60;;;;;;;9.00;99.43;94378.81;5028439;28;20275;-74
2023/03/22 06:26:10;;;;;;;5.10;3.30;;;;;;;8.99;100.00;94374.53;5028743;28;20279;-75
2023/03/22 06:28:37;;;;;;;4.47;2.90;;;;;;;9.03;100.00;94385.44;5028488;28;20736;-75
2023/03/22 06:31:08;;;;;;;5.80;3.13;;;;;;;9.18;100.00;94377.59;5029352;28;20257;-74
2023/03/22 06:33:34;;;;;;;4.60;2.80;;;;;;;9.27;99.98;94378.38;5028992;28;20750;-75
2023/03/22 06:36:02;;;;;;;5.35;3.05;;;;;;;9.30;100.00;94378.81;5028819;28;20570;-75
2023/03/22 06:38:29;;;;;;;5.93;3.25;;;;;;;9.18;99.30;94384.91;5029156;28;20219;-75
2023/03/22 06:40:56;;;;;;;5.30;3.58;;;;;;;9.20;100.00;94386.19;5028905;28;20201;-75
2023/03/22 06:43:22;;;;;;;4.70;3.30;;;;;;;9.17;100.00;94392.22;5028653;28;20220;-75
2023/03/22 06:45:49;;;;;;;7.60;3.72;;;;;;;9.36;99.71;94388.34;5028618;28;20728;-75
2023/03/22 06:48:20;;;;;;;7.45;3.60;;;;;;;9.41;99.50;94390.88;5029018;28;20717;-74
2023/03/22 06:50:47;;;;;;;6.97;3.47;;;;;;;9.57;100.00;94400.00;5028640;28;20200;-74
2023/03/22 06:53:14;;;;;;;8.00;3.50;;;;;;;9.65;99.48;94396.47;5008629;28;20229;-73
2023/03/22 06:55:41;;;;;;;5.82;3.85;;;;;;;9.68;98.97;94395.81;5021069;28;20208;-75
2023/03/22 06:58:07;;;;;;;5.40;3.20;;;;;;;9.63;97.21;94398.69;5015115;28;20215;-74
2023/03/22 07:00:35;;;;;;;4.90;3.42;;;;;;;9.60;97.05;94399.34;5027815;28;20730;-74
2023/03/22 07:03:02;;;;;;;3.88;3.25;;;;;;;9.73;97.09;94398.31;5027774;28;20302;-75
2023/03/22 07:05:30;;;;;;;4.38;2.97;;;;;;;9.76;95.91;94413.91;5027812;28;20208;-75
2023/03/22 07:07:57;;;;;;;4.00;2.22;;;;;;;9.60;94.85;94410.16;5028353;28;20287;-74
2023/03/22 07:10:24;;;;;;;4.43;3.22;;;;;;;9.65;93.98;94420.81;5028013;28;20247;-73
2023/03/22 07:12:51;;;;;;;3.53;2.60;;;;;;;9.71;94.41;94413.28;5027588;28;20254;-75
2023/03/22 07:15:22;;;;;;;5.30;3.20;;;;;;;9.87;93.59;94415.09;5028086;28;20208;-77
2023/03/22 07:17:49;;;;;;;3.92;2.75;;;;;;;9.96;93.57;94423.97;5028017;28;20586;-74
2023/03/22 07:20:16;;;;;;;9.40;3.42;;;;;;;10.19;92.26;94420.97;5027757;28;20208;-75
2023/03/22 07:22:44;;;;;;;3.05;2.53;;;;;;;10.12;92.84;94423.38;5027980;28;20622;-75
2023/03/22 07:25:11;;;;;;;4.25;2.55;;;;;;;10.19;92.84;94423.69;5027232;28;20286;-75
2023/03/22 07:27:39;;;;;;;4.78;3.17;;;;;;;10.27;93.09;94418.19;5027361;28;20208;-75
2023/03/22 07:30:07;;;;;;;5.15;4.05;;;;;;;10.37;93.20;94422.44;5027244;28;20671;-75
2023/03/22 07:32:34;;;;;;;4.65;3.50;;;;;;;10.27;93.82;94439.06;5028038;28;20204;-75
2023/03/22 07:35:00;;;;;;;6.15;3.72;;;;;;;10.40;93.92;94435.28;5027769;28;20235;-76
2023/03/22 07:37:27;;;;;;;6.72;4.03;;;;;;;10.40;94.01;94429.88;5028032;28;20958;-75
2023/03/22 07:39:55;;;;;;;6.60;3.92;;;;;;;10.29;93.59;94431.41;5027543;28;20196;-75
2023/03/22 07:42:22;;;;;;;5.85;3.90;;;;;;;10.17;93.01;94434.00;5027882;28;20204;-75
2023/03/22 07:44:49;;;;;;;6.18;3.80;;;;;;;10.24;92.05;94439.72;5027749;28;20208;-75
2023/03/22 07:47:16;;;;;;;5.47;3.53;;;;;;;10.21;91.83;94434.97;5027572;28;20683;-75
2023/03/22 07:49:43;;;;;;;2.95;2.17;;;;;;;10.11;90.04;94441.53;5027233;28;20207;-75
2023/03/22 07:52:09;;;;;;;6.07;3.50;;;;;;;10.06;90.21;94443.63;5027240;28;20608;-75
2023/03/22 07:54:36;;;;;;;4.65;2.78;;;;;;;10.21;91.53;94446.59;5027271;28;20323;-75
2023/03/22 07:57:05;;;;;;;4.13;3.08;;;;;;;10.20;92.30;94449.63;5027463;28;20209;-75
2023/03/22 07:59:32;;;;;;;4.68;3.38;;;;;;;10.15;91.59;94447.88;5026874;28;20295;-75
2023/03/22 08:09:38;;;;;;;3.33;2.47;;;;;;;10.06;91.57;94449.06;5030617;28;20224;-77
2023/03/22 08:12:07;;;;;;;5.28;2.90;;;;;;;10.17;91.40;94445.63;5022273;28;20259;-77
2023/03/22 08:14:34;;;;;;;3.95;2.97;;;;;;;10.23;91.99;94443.56;5031150;28;20236;-76
2023/03/22 08:17:01;;;;;;;4.03;2.70;;;;;;;10.23;91.16;94448.97;5029687;28;20201;-76
2023/03/22 08:19:28;;;;;;;4.53;2.90;;;;;;;10.24;91.94;94445.94;5031658;28;20200;-76
2023/03/22 08:21:56;;;;;;;5.05;2.78;;;;;;;10.19;91.91;94445.34;5028878;28;20203;-77
2023/03/22 08:26:58;;;;;;;5.97;3.00;;;;;;;10.35;91.62;94450.97;5655171;22;20231;-76
2023/03/22 08:29:26;;;;;;;9.70;3.55;;;;;;;10.25;90.56;94447.50;5030339;28;20255;-76
2023/03/22 08:31:53;;;;;;;4.65;3.38;;;;;;;10.13;91.83;94454.72;5025107;28;20259;-73
2023/03/22 08:34:20;;;;;;;6.10;4.07;;;;;;;10.18;91.15;94449.13;5031369;28;20297;-75
2023/03/22 08:36:47;;;;;;;5.68;3.42;;;;;;;10.33;91.62;94456.69;5033275;28;20609;-76
2023/03/22 08:39:14;;;;;;;8.85;4.18;;;;;;;10.36;90.75;94453.34;5043042;28;20255;-78
2023/03/22 08:41:40;;;;;;;8.60;4.72;;;;;;;10.33;91.11;94459.41;5030001;28;20193;-81
2023/03/22 08:44:07;;;;;;;8.02;4.00;;;;;;;10.31;90.37;94450.81;5031007;28;20204;-83
2023/03/22 08:46:35;;;;;;;7.05;3.92;;;;;;;10.16;89.89;94464.91;5031229;28;20246;-79
2023/03/22 08:49:03;;;;;;;17.85;6.68;;;;;;;10.17;89.85;94451.03;5031087;28;20204;-79
2023/03/22 08:51:30;;;;;;;17.83;7.90;;;;;;;10.36;90.25;94461.47;5029494;28;20573;-81
2023/03/22 08:53:59;;;;;;;38.90;16.55;;;;;;;10.35;90.06;94467.19;5030721;28;20296;-81
2023/03/22 08:56:26;;;;;;;8.00;4.72;;;;;;;10.37;90.24;94459.53;5035592;28;20205;-81
2023/03/22 08:58:53;;;;;;;9.15;4.32;;;;;;;10.19;90.34;94469.69;5030276;28;20578;-78
2023/03/22 09:01:20;;;;;;;7.93;5.03;;;;;;;10.23;93.16;94470.63;5029837;28;20977;-76
2023/03/22 09:03:48;;;;;;;10.77;5.63;;;;;;;10.18;92.50;94478.91;5029633;28;20267;-76
2023/03/22 10:08:46;;;;;;;6.28;4.15;;;;;;;11.75;88.67;94475.22;5025091;28;20227;-75
2023/03/22 10:11:22;;;;;;;7.40;4.68;;;;;;;11.92;88.09;94475.03;5015737;28;20204;-78
2023/03/22 10:14:01;;;;;;;9.20;4.60;;;;;;;11.70;86.68;94487.09;5029082;28;20270;-78
2023/03/22 10:19:08;;;;;;;8.98;4.22;;;;;;;11.78;84.77;94485.41;4830455;22;20242;-79
2023/03/22 10:21:36;;;;;;;7.68;5.13;;;;;;;11.46;84.84;94484.34;5060465;28;20205;-80
2023/03/22 10:24:08;;;;;;;7.90;4.03;;;;;;;11.53;84.21;94481.84;5065142;28;20211;-76
2023/03/22 10:26:39;;;;;;;5.43;4.25;;;;;;;11.68;84.91;94485.84;5051700;28;20626;-78
2023/03/22 10:29:12;;;;;;;5.70;3.55;;;;;;;11.67;84.38;94484.25;5058395;28;20199;-76
2023/03/22 10:31:43;;;;;;;6.28;4.10;;;;;;;11.61;84.67;94478.28;5058317;28;20260;-77
2023/03/22 10:34:19;;;;;;;6.97;4.28;;;;;;;11.60;85.58;94481.31;5051219;28;20230;-80
2023/03/22 10:36:48;;;;;;;6.28;4.00;;;;;;;11.49;87.02;94480.94;5051411;28;20195;-76
2023/03/22 10:39:26;;;;;;;7.00;4.13;;;;;;;11.47;87.56;94483.22;5054031;28;20725;-78
2023/03/22 10:41:56;;;;;;;8.98;4.25;;;;;;;11.54;85.84;94485.38;5056361;28;20198;-76
2023/03/22 10:44:26;;;;;;;6.03;3.97;;;;;;;11.54;87.09;94479.94;5056484;28;20944;-76
2023/03/22 10:46:54;;;;;;;7.40;4.90;;;;;;;11.53;87.05;94481.84;5053520;28;20238;-76
2023/03/22 10:49:27;;;;;;;8.30;4.50;;;;;;;11.77;86.89;94481.13;5068615;28;20199;-78
2023/03/22 10:51:58;;;;;;;7.22;4.05;;;;;;;11.68;86.28;94480.41;5054823;28;20407;-78
2023/03/22 10:54:25;;;;;;;8.85;5.85;;;;;;;11.69;86.31;94482.78;5057549;28;20238;-78
2023/03/22 10:56:54;;;;;;;10.35;4.43;;;;;;;11.74;85.30;94468.22;5066193;28;20294;-78
2023/03/22 10:59:44;;;;;;;8.77;5.03;;;;;;;11.98;83.79;94478.31;5057831;28;20199;-78
2023/03/22 11:02:21;;;;;;;9.82;4.28;;;;;;;11.77;83.51;94478.41;5056119;28;20294;-78
2023/03/22 11:04:50;;;;;;;4.07;3.05;;;;;;;11.80;83.43;94475.03;5055335;28;20939;-78
2023/03/22 11:07:30;;;;;;;4.53;2.40;;;;;;;11.96;80.36;94477.84;5059556;28;20211;-78
2023/03/22 11:10:20;;;;;;;6.57;3.60;;;;;;;12.00;83.04;94470.63;5062218;28;20303;-78
2023/03/22 11:12:51;;;;;;;4.88;2.97;;;;;;;11.90;82.27;94471.84;5062086;28;20230;-77
2023/03/22 11:15:25;;;;;;;4.30;3.30;;;;;;;11.95;82.11;94468.91;5056829;28;20712;-78
2023/03/22 11:17:56;;;;;;;4.72;3.58;;;;;;;11.97;81.72;94466.66;5054603;28;20231;-77
2023/03/22 11:20:23;;;;;;;5.80;3.78;;;;;;;11.97;81.42;94472.09;5058280;28;20675;-76
2023/03/22 11:22:51;;;;;;;3.85;2.90;;;;;;;11.91;82.50;94462.56;5064985;28;20705;-77
2023/03/22 11:25:22;;;;;;;3.85;2.45;;;;;;;12.06;82.16;94455.66;5068568;28;20284;-77
2023/03/22 11:27:53;;;;;;;5.07;2.47;;;;;;;11.98;82.66;94454.66;5063377;28;20200;-77
2023/03/22 11:30:22;;;;;;;4.55;2.40;;;;;;;12.02;80.73;94469.16;5051396;28;20199;-78
2023/03/22 11:32:59;;;;;;;4.93;2.17;;;;;;;11.80;80.88;94456.03;5060831;28;20714;-76
2023/03/22 11:35:26;;;;;;;3.38;2.28;;;;;;;11.46;81.55;94461.84;5061395;28;20288;-77
2023/03/22 11:37:54;;;;;;;4.53;2.67;;;;;;;11.30;82.37;94464.41;5048191;28;20208;-77
2023/03/22 11:40:23;;;;;;;6.07;4.25;;;;;;;11.27;82.17;94454.25;5060445;28;20199;-76
2023/03/22 11:42:55;;;;;;;6.25;3.75;;;;;;;11.24;86.08;94461.13;5055878;28;20604;-76
2023/03/22 11:45:26;;;;;;;7.82;4.68;;;;;;;11.31;85.44;94461.38;5053867;28;20199;-76
2023/03/22 11:47:54;;;;;;;8.68;5.88;;;;;;;11.09;85.82;94464.47;5058260;28;20207;-77
2023/03/22 11:50:28;;;;;;;8.65;4.30;;;;;;;11.02;86.25;94465.03;5060216;28;20275;-76
2023/03/22 11:52:55;;;;;;;8.30;4.28;;;;;;;11.13;86.50;94464.59;5062597;28;20203;-76
2023/03/22 11:55:26;;;;;;;7.22;4.95;;;;;;;11.00;86.71;94469.19;5066988;28;20336;-77
2023/03/22 11:57:56;;;;;;;6.05;3.15;;;;;;;11.03;84.25;94466.63;5056121;28;20227;-78
2023/03/22 12:00:26;;;;;;;3.70;2.00;;;;;;;10.94;81.92;94473.22;5066570;28;20202;-77
2023/03/22 12:02:58;;;;;;;5.22;2.58;;;;;;;10.63;82.74;94468.25;5057062;28;20217;-77
2023/03/22 12:05:27;;;;;;;7.15;3.20;;;;;;;10.81;85.27;94463.47;5057900;28;20261;-78
2023/03/22 12:07:59;;;;;;;4.28;2.78;;;;;;;11.01;85.68;94468.84;5047943;28;20187;-77
2023/03/22 12:10:31;;;;;;;6.00;2.67;;;;;;;11.06;82.68;94465.16;5060199;28;20226;-78
2023/03/22 12:13:02;;;;;;;3.58;2.65;;;;;;;11.16;82.86;94467.44;5061446;28;20198;-74
2023/03/22 12:15:31;;;;;;;5.20;2.90;;;;;;;11.38;82.24;94461.59;5056666;28;20231;-74
2023/03/22 12:18:02;;;;;;;5.25;2.70;;;;;;;11.76;82.49;94465.97;5058505;28;20251;-75
2023/03/22 12:20:41;;;;;;;4.57;3.65;;;;;;;11.89;81.70;94459.41;5044769;28;20203;-74
2023/03/22 12:23:18;;;;;;;3.63;2.35;;;;;;;11.89;79.18;94458.66;5033280;28;20714;-73
2023/03/22 12:25:50;;;;;;;3.78;2.50;;;;;;;11.92;79.85;94458.72;5046075;28;20751;-75
2023/03/22 12:28:23;;;;;;;5.13;3.55;;;;;;;11.96;78.82;94451.50;5030525;28;20723;-74
2023/03/22 12:30:52;;;;;;;3.70;2.60;;;;;;;12.21;80.35;94440.59;5039772;28;20285;-74
2023/03/22 12:33:23;;;;;;;4.68;2.78;;;;;;;12.49;78.91;94449.59;5025278;28;20285;-75
2023/03/22 12:35:56;;;;;;;3.65;2.50;;;;;;;12.23;77.44;94447.28;5037464;28;20297;-78
2023/03/22 12:38:32;;;;;;;3.88;2.70;;;;;;;12.73;79.55;94449.53;5033464;28;20243;-77
2023/03/22 12:41:03;;;;;;;4.30;3.03;;;;;;;12.84;78.03;94449.06;5032116;28;20220;-76
2023/03/22 12:43:46;;;;;;;4.63;3.30;;;;;;;12.81;76.68;94435.03;5029718;28;20193;-77
2023/03/22 12:46:19;;;;;;;5.80;3.47;;;;;;;13.19;75.85;94433.72;5036795;28;20319;-78
2023/03/22 12:48:48;;;;;;;2.97;2.13;;;;;;;13.34;73.88;94440.34;5042664;28;20286;-78
2023/03/22 12:51:15;;;;;;;2.53;1.67;;;;;;;13.83;73.98;94427.94;5033575;28;20254;-75
2023/03/22 12:53:45;;;;;;;5.70;2.28;;;;;;;14.04;70.15;94427.69;5036627;28;20255;-75
2023/03/22 12:56:16;;;;;;;3.63;2.30;;;;;;;13.93;71.68;94437.53;5043345;28;20227;-75
2023/03/22 12:58:48;;;;;;;3.65;2.25;;;;;;;14.09;71.07;94438.28;5049711;28;20230;-77
2023/03/22 13:01:28;;;;;;;2.90;2.03;;;;;;;13.71;71.04;94432.72;5049306;28;20250;-76
2023/03/22 13:03:56;;;;;;;4.40;2.22;;;;;;;13.74;69.88;94432.00;5044959;28;20215;-77